Time,TemperatureF,DewpointF,PressureIn,WindDirection,WindDirectionDegrees,WindSpeedMPH,WindSpeedGustMPH,Humidity,HourlyPrecipIn,Conditions,Clouds,dailyrainin,SoftwareType,DateUTC
2013-01-14 00:22:00,34.0,34.0,30.03,West,280,13.0,-999.0,99,-99.99,,,-99.99,,2013-01-14 04:22:00,
2013-01-14 00:32:00,34.0,34.0,30.03,West,280,13.0,-999.0,99,-99.99,,,-99.99,,2013-01-14 04:32:00,
2013-01-14 00:42:00,34.0,34.0,30.03,West,280,13.0,-999.0,99,-99.99,,,-99.99,,2013-01-14 04:42:00,
2013-01-14 00:52:00,34.0,34.0,30.03,West,280,13.0,-999.0,99,-99.99,,,-99.99,,2013-01-14 04:52:00,
2013-01-14 01:00:00,33.0,32.0,30.06,West,280,13.0,-999.0,95,-99.99,,,-99.99,,2013-01-14 05:00:00,
2013-01-14 01:22:00,33.0,32.0,30.06,West,280,13.0,-999.0,95,-99.99,,,-99.99,,2013-01-14 05:22:00,
2013-01-14 01:32:00,33.0,32.0,30.06,West,280,13.0,-999.0,95,-99.99,,,-99.99,,2013-01-14 05:32:00,
2013-01-14 01:42:00,33.0,32.0,30.06,West,280,13.0,-999.0,95,-99.99,,,-99.99,,2013-01-14 05:42:00,
2013-01-14 01:52:00,33.0,32.0,30.06,West,280,13.0,-999.0,95,-99.99,,,-99.99,,2013-01-14 05:52:00,
2013-01-14 02:00:00,31.0,26.0,30.10,WNW,290,16.0,-999.0,81,-99.99,,,-99.99,,2013-01-14 06:00:00,
2013-01-14 02:22:00,31.0,26.0,30.10,WNW,290,16.0,-999.0,81,-99.99,,,-99.99,,2013-01-14 06:22:00,
2013-01-14 02:32:00,31.0,26.0,30.10,WNW,290,16.0,-999.0,81,-99.99,,,-99.99,,2013-01-14 06:32:00,
2013-01-14 02:42:00,31.0,26.0,30.10,WNW,290,16.0,-999.0,81,-99.99,,,-99.99,,2013-01-14 06:42:00,
2013-01-14 02:52:00,31.0,26.0,30.10,WNW,290,16.0,-999.0,81,-99.99,,,-99.99,,2013-01-14 06:52:00,
2013-01-14 04:00:00,29.0,22.0,30.18,West,280,15.0,-999.0,76,-99.99,,,-99.99,,2013-01-14 08:00:00,
2013-01-14 04:22:00,29.0,22.0,30.18,West,280,15.0,-999.0,76,-99.99,,,-99.99,,2013-01-14 08:22:00,
2013-01-14 04:32:00,29.0,22.0,30.18,West,280,15.0,-999.0,76,-99.99,,,-99.99,,2013-01-14 08:32:00,
2013-01-14 04:42:00,29.0,22.0,30.18,West,280,15.0,-999.0,76,-99.99,,,-99.99,,2013-01-14 08:42:00,
2013-01-14 04:52:00,29.0,22.0,30.18,West,280,15.0,-999.0,76,-99.99,,,-99.99,,2013-01-14 08:52:00,
2013-01-14 05:00:00,28.0,22.0,30.21,WNW,290,13.0,-999.0,78,-99.99,,,-99.99,,2013-01-14 09:00:00,
2013-01-14 05:22:00,28.0,22.0,30.21,WNW,290,13.0,-999.0,78,-99.99,,,-99.99,,2013-01-14 09:22:00,
2013-01-14 05:32:00,28.0,22.0,30.21,WNW,290,13.0,-999.0,78,-99.99,,,-99.99,,2013-01-14 09:32:00,
2013-01-14 05:42:00,28.0,22.0,30.21,WNW,290,13.0,-999.0,78,-99.99,,,-99.99,,2013-01-14 09:42:00,
2013-01-14 05:52:00,28.0,22.0,30.21,WNW,290,13.0,-999.0,78,-99.99,,,-99.99,,2013-01-14 09:52:00,
2013-01-14 06:00:00,26.0,20.0,30.24,WNW,300,9.0,-999.0,79,-99.99,,,-99.99,,2013-01-14 10:00:00,
2013-01-14 06:22:00,26.0,20.0,30.24,WNW,300,9.0,-999.0,79,-99.99,,,-99.99,,2013-01-14 10:22:00,
2013-01-14 06:32:00,26.0,20.0,30.24,WNW,300,9.0,-999.0,79,-99.99,,,-99.99,,2013-01-14 10:32:00,
2013-01-14 06:42:00,26.0,20.0,30.24,WNW,300,9.0,-999.0,79,-99.99,,,-99.99,,2013-01-14 10:42:00,
2013-01-14 06:52:00,26.0,20.0,30.24,WNW,300,9.0,-999.0,79,-99.99,,,-99.99,,2013-01-14 10:52:00,
2013-01-14 07:00:00,25.0,19.0,30.27,WNW,300,11.0,-999.0,78,-99.99,,,-99.99,,2013-01-14 11:00:00,
2013-01-14 07:22:00,25.0,19.0,30.27,WNW,300,11.0,-999.0,78,-99.99,,,-99.99,,2013-01-14 11:22:00,
2013-01-14 07:32:00,25.0,19.0,30.27,WNW,300,11.0,-999.0,78,-99.99,,,-99.99,,2013-01-14 11:32:00,
2013-01-14 07:42:00,25.0,19.0,30.27,WNW,300,11.0,-999.0,78,-99.99,,,-99.99,,2013-01-14 11:42:00,
2013-01-14 07:52:00,25.0,19.0,30.27,WNW,300,11.0,-999.0,78,-99.99,,,-99.99,,2013-01-14 11:52:00,
2013-01-14 08:00:00,24.0,18.0,30.30,NW,310,8.0,-999.0,77,-99.99,,,-99.99,,2013-01-14 12:00:00,
2013-01-14 08:22:00,24.0,18.0,30.30,NW,310,8.0,-999.0,77,-99.99,,,-99.99,,2013-01-14 12:22:00,
2013-01-14 08:32:00,24.0,18.0,30.30,NW,310,8.0,-999.0,77,-99.99,,,-99.99,,2013-01-14 12:32:00,
2013-01-14 08:42:00,24.0,18.0,30.30,NW,310,8.0,-999.0,77,-99.99,,,-99.99,,2013-01-14 12:42:00,
2013-01-14 08:52:00,24.0,18.0,30.30,NW,310,8.0,-999.0,77,-99.99,,,-99.99,,2013-01-14 12:52:00,
2013-01-14 09:00:00,24.0,18.0,30.34,WNW,290,9.0,-999.0,77,-99.99,,,-99.99,,2013-01-14 13:00:00,
2013-01-14 09:22:00,24.0,18.0,30.34,WNW,290,9.0,-999.0,77,-99.99,,,-99.99,,2013-01-14 13:22:00,
2013-01-14 09:33:00,24.0,18.0,30.34,WNW,290,9.0,-999.0,77,-99.99,,,-99.99,,2013-01-14 13:33:00,
2013-01-14 09:42:00,24.0,18.0,30.34,WNW,290,9.0,-999.0,77,-99.99,,,-99.99,,2013-01-14 13:42:00,
2013-01-14 09:52:00,24.0,18.0,30.34,WNW,290,9.0,-999.0,77,-99.99,,,-99.99,,2013-01-14 13:52:00,
2013-01-14 10:00:00,24.0,17.0,30.38,West,270,9.0,-999.0,76,-99.99,,,-99.99,,2013-01-14 14:00:00,
2013-01-14 10:22:00,24.0,17.0,30.38,West,270,9.0,-999.0,76,-99.99,,,-99.99,,2013-01-14 14:22:00,
2013-01-14 10:32:00,24.0,17.0,30.38,West,270,9.0,-999.0,76,-99.99,,,-99.99,,2013-01-14 14:32:00,
2013-01-14 10:42:00,24.0,17.0,30.38,West,270,9.0,-999.0,76,-99.99,,,-99.99,,2013-01-14 14:42:00,
2013-01-14 10:52:00,24.0,17.0,30.38,West,270,9.0,-999.0,76,-99.99,,,-99.99,,2013-01-14 14:52:00,
2013-01-14 11:00:00,24.0,18.0,30.40,NW,320,8.0,-999.0,75,-99.99,,,-99.99,,2013-01-14 15:00:00,
2013-01-14 11:22:00,24.0,18.0,30.40,NW,320,8.0,-999.0,75,-99.99,,,-99.99,,2013-01-14 15:22:00,
2013-01-14 11:33:00,24.0,18.0,30.40,NW,320,8.0,-999.0,75,-99.99,,,-99.99,,2013-01-14 15:33:00,
2013-01-14 11:42:00,24.0,18.0,30.40,NW,320,8.0,-999.0,75,-99.99,,,-99.99,,2013-01-14 15:42:00,
2013-01-14 11:52:00,24.0,18.0,30.40,NW,320,8.0,-999.0,75,-99.99,,,-99.99,,2013-01-14 15:52:00,
2013-01-14 12:00:00,24.0,17.0,30.42,West,280,8.0,-999.0,73,-99.99,,,-99.99,,2013-01-14 16:00:00,
2013-01-14 12:22:00,24.0,17.0,30.42,West,280,8.0,-999.0,73,-99.99,,,-99.99,,2013-01-14 16:22:00,
2013-01-14 12:32:00,24.0,17.0,30.42,West,280,8.0,-999.0,73,-99.99,,,-99.99,,2013-01-14 16:32:00,
2013-01-14 12:42:00,24.0,17.0,30.42,West,280,8.0,-999.0,73,-99.99,,,-99.99,,2013-01-14 16:42:00,
2013-01-14 12:52:00,24.0,17.0,30.42,West,280,8.0,-999.0,73,-99.99,,,-99.99,,2013-01-14 16:52:00,
2013-01-14 13:00:00,25.0,17.0,30.40,WNW,300,3.0,-999.0,72,-99.99,,,-99.99,,2013-01-14 17:00:00,
2013-01-14 13:22:00,25.0,17.0,30.40,WNW,300,3.0,-999.0,72,-99.99,,,-99.99,,2013-01-14 17:22:00,
2013-01-14 13:32:00,25.0,17.0,30.40,WNW,300,3.0,-999.0,72,-99.99,,,-99.99,,2013-01-14 17:32:00,
2013-01-14 13:42:00,25.0,17.0,30.40,WNW,300,3.0,-999.0,72,-99.99,,,-99.99,,2013-01-14 17:42:00,
2013-01-14 13:53:00,25.0,17.0,30.40,WNW,300,3.0,-999.0,72,-99.99,,,-99.99,,2013-01-14 17:53:00,
2013-01-14 14:00:00,26.0,17.0,30.37,North,360,3.0,-999.0,69,-99.99,,,-99.99,,2013-01-14 18:00:00,
2013-01-14 14:22:00,26.0,17.0,30.37,North,360,3.0,-999.0,69,-99.99,,,-99.99,,2013-01-14 18:22:00,
2013-01-14 14:33:00,26.0,17.0,30.37,North,360,3.0,-999.0,69,-99.99,,,-99.99,,2013-01-14 18:33:00,
2013-01-14 14:42:00,26.0,17.0,30.37,North,360,3.0,-999.0,69,-99.99,,,-99.99,,2013-01-14 18:42:00,
2013-01-14 14:52:00,26.0,17.0,30.37,North,360,3.0,-999.0,69,-99.99,,,-99.99,,2013-01-14 18:52:00,
2013-01-14 15:00:00,25.0,15.0,30.38,WSW,240,5.0,-999.0,66,-99.99,,,-99.99,,2013-01-14 19:00:00,
2013-01-14 15:22:00,25.0,15.0,30.38,WSW,240,5.0,-999.0,66,-99.99,,,-99.99,,2013-01-14 19:22:00,
2013-01-14 15:32:00,25.0,15.0,30.38,WSW,240,5.0,-999.0,66,-99.99,,,-99.99,,2013-01-14 19:32:00,
2013-01-14 15:42:00,25.0,15.0,30.38,WSW,240,5.0,-999.0,66,-99.99,,,-99.99,,2013-01-14 19:42:00,
2013-01-14 15:52:00,25.0,15.0,30.38,WSW,240,5.0,-999.0,66,-99.99,,,-99.99,,2013-01-14 19:52:00,
2013-01-14 16:00:00,26.0,16.0,30.40,WNW,300,3.0,-999.0,64,-99.99,,,-99.99,,2013-01-14 20:00:00,
2013-01-14 16:22:00,26.0,16.0,30.40,WNW,300,3.0,-999.0,64,-99.99,,,-99.99,,2013-01-14 20:22:00,
2013-01-14 16:32:00,26.0,16.0,30.40,WNW,300,3.0,-999.0,64,-99.99,,,-99.99,,2013-01-14 20:32:00,
2013-01-14 16:42:00,26.0,16.0,30.40,WNW,300,3.0,-999.0,64,-99.99,,,-99.99,,2013-01-14 20:42:00,
2013-01-14 16:52:00,26.0,16.0,30.40,WNW,300,3.0,-999.0,64,-99.99,,,-99.99,,2013-01-14 20:52:00,
2013-01-14 17:00:00,26.0,16.0,30.43,WNW,290,5.0,-999.0,65,-99.99,,,-99.99,,2013-01-14 21:00:00,
2013-01-14 17:22:00,26.0,16.0,30.43,WNW,290,5.0,-999.0,65,-99.99,,,-99.99,,2013-01-14 21:22:00,
2013-01-14 17:32:00,26.0,16.0,30.43,WNW,290,5.0,-999.0,65,-99.99,,,-99.99,,2013-01-14 21:32:00,
2013-01-14 17:42:00,26.0,16.0,30.43,WNW,290,5.0,-999.0,65,-99.99,,,-99.99,,2013-01-14 21:42:00,
2013-01-14 17:52:00,26.0,16.0,30.43,WNW,290,5.0,-999.0,65,-99.99,,,-99.99,,2013-01-14 21:52:00,
2013-01-14 18:00:00,26.0,17.0,30.44,NW,310,5.0,-999.0,67,-99.99,,,-99.99,,2013-01-14 22:00:00,
2013-01-14 18:22:00,26.0,17.0,30.44,NW,310,5.0,-999.0,67,-99.99,,,-99.99,,2013-01-14 22:22:00,
2013-01-14 18:32:00,26.0,17.0,30.44,NW,310,5.0,-999.0,67,-99.99,,,-99.99,,2013-01-14 22:32:00,
2013-01-14 18:42:00,26.0,17.0,30.44,NW,310,5.0,-999.0,67,-99.99,,,-99.99,,2013-01-14 22:42:00,
2013-01-14 18:52:00,26.0,17.0,30.44,NW,310,5.0,-999.0,67,-99.99,,,-99.99,,2013-01-14 22:52:00,
2013-01-14 19:00:00,26.0,17.0,30.45,WNW,290,5.0,-999.0,67,-99.99,,,-99.99,,2013-01-14 23:00:00,
2013-01-14 19:22:00,26.0,17.0,30.45,WNW,290,5.0,-999.0,67,-99.99,,,-99.99,,2013-01-14 23:22:00,
2013-01-14 19:32:00,26.0,17.0,30.45,WNW,290,5.0,-999.0,67,-99.99,,,-99.99,,2013-01-14 23:32:00,
2013-01-14 19:42:00,26.0,17.0,30.45,WNW,290,5.0,-999.0,67,-99.99,,,-99.99,,2013-01-14 23:42:00,
2013-01-14 19:52:00,26.0,17.0,30.45,WNW,290,5.0,-999.0,67,-99.99,,,-99.99,,2013-01-14 23:52:00,
2013-01-14 20:00:00,26.0,17.0,30.43,NW,320,8.0,-999.0,68,-99.99,,,-99.99,,2013-01-15 00:00:00,
2013-01-14 20:22:00,26.0,17.0,30.43,NW,320,8.0,-999.0,68,-99.99,,,-99.99,,2013-01-15 00:22:00,
2013-01-14 20:32:00,26.0,17.0,30.43,NW,320,8.0,-999.0,68,-99.99,,,-99.99,,2013-01-15 00:32:00,
2013-01-14 20:42:00,26.0,17.0,30.43,NW,320,8.0,-999.0,68,-99.99,,,-99.99,,2013-01-15 00:42:00,
2013-01-14 20:52:00,26.0,17.0,30.43,NW,320,8.0,-999.0,68,-99.99,,,-99.99,,2013-01-15 00:52:00,
2013-01-14 21:00:00,26.0,17.0,30.42,NW,310,3.0,-999.0,69,-99.99,,,-99.99,,2013-01-15 01:00:00,
2013-01-14 21:22:00,26.0,17.0,30.42,NW,310,3.0,-999.0,69,-99.99,,,-99.99,,2013-01-15 01:22:00,
2013-01-14 21:32:00,26.0,17.0,30.42,NW,310,3.0,-999.0,69,-99.99,,,-99.99,,2013-01-15 01:32:00,
2013-01-14 21:42:00,26.0,17.0,30.42,NW,310,3.0,-999.0,69,-99.99,,,-99.99,,2013-01-15 01:42:00,
2013-01-14 21:52:00,26.0,17.0,30.42,NW,310,3.0,-999.0,69,-99.99,,,-99.99,,2013-01-15 01:52:00,
2013-01-14 22:00:00,26.0,17.0,30.41,NNW,330,5.0,-999.0,69,-99.99,,,-99.99,,2013-01-15 02:00:00,
2013-01-14 22:22:00,26.0,17.0,30.41,NNW,330,5.0,-999.0,69,-99.99,,,-99.99,,2013-01-15 02:22:00,
2013-01-14 22:32:00,26.0,17.0,30.41,NNW,330,5.0,-999.0,69,-99.99,,,-99.99,,2013-01-15 02:32:00,
2013-01-14 22:42:00,26.0,17.0,30.41,NNW,330,5.0,-999.0,69,-99.99,,,-99.99,,2013-01-15 02:42:00,
2013-01-14 22:52:00,26.0,17.0,30.41,NNW,330,5.0,-999.0,69,-99.99,,,-99.99,,2013-01-15 02:52:00,
2013-01-14 23:00:00,25.0,17.0,30.42,NW,320,5.0,-999.0,70,-99.99,,,-99.99,,2013-01-15 03:00:00,
2013-01-14 23:22:00,25.0,17.0,30.42,NW,320,5.0,-999.0,70,-99.99,,,-99.99,,2013-01-15 03:22:00,
2013-01-14 23:32:00,25.0,17.0,30.42,NW,320,5.0,-999.0,70,-99.99,,,-99.99,,2013-01-15 03:32:00,
2013-01-14 23:42:00,25.0,17.0,30.42,NW,320,5.0,-999.0,70,-99.99,,,-99.99,,2013-01-15 03:42:00,
2013-01-14 23:52:00,25.0,17.0,30.42,NW,320,5.0,-999.0,70,-99.99,,,-99.99,,2013-01-15 03:52:00,